Mansfield, OH

9:11 AM EST on February 11, 2016 (GMT -0500)
Mansfield Lahm Regional | | Change Station
CLOSE
Current Station
Airport
Location: Mansfield,
Elevation: 1296 ft
Nearby Weather Stations

Elev 1296 ft 40.82 °N, 82.52 °W | Updated 19 minutes ago

Overcast
Overcast
10 °F
Feels Like -1 °F
N
7
Wind Variable Wind from West

Today
High -- | Low -- °F
--% Chance of Precip.
Yesterday
High -- | Low -- °F
Precip. -- in
Pressure 30.22 in
Visibility 10.0 miles
Clouds Overcast 5500 ft
Windchill -1 °F
Dew Point 5 °F
Humidity 80%
Rainfall 0.00 in
Snow Depth Not available.
7:29 AM 5:59 PM
Waxing Crescent, 12% visible
METAR KMFD 111352Z 26006KT 10SM OVC055 M12/M15 A3014 RMK AO2 SLP231 T11221150
Pressure 30.22 in
Visibility 10.0 miles
Clouds Overcast 5500 ft
Windchill -1 °F
Dew Point 5 °F
Humidity 80%
Rainfall 0.00 in
Snow Depth Not available.
7:29 AM 5:59 PM
Waxing Crescent, 12% visible
METAR KMFD 111352Z 26006KT 10SM OVC055 M12/M15 A3014 RMK AO2 SLP231 T11221150

10-Day Weather Forecast

Almanac

Astronomy

Feb. 11, 2016 Rise Set
Actual Time
Civil Twilight
Nautical Twilight
Astronomical Twilight
Moon
Length of Visible Light
Length of Day
Tomorrow will be .
, % of the Moon is Illuminated

Today's Extremes

State Highs State Lows

Community

WunderPhotos

Upload Photos

1,892,048 photos uploaded!

WunderBlog® & News

Nearby

Air Quality

  Air Quality AQ Index Pollutant
Not available.

Snow Depth

Station Depth Elevation

Earthquake Activity

City Distance Mag. Time & Date
Minimum magnitude displayed is 2.5.

Coastal Water Temperatures

Place Temperature

Stations

Nearby Weather Stations

Station Location Temp. Windchill Dew Point Humidity Wind Precip. Elev Updated Type
                   

Watches & Warnings

There are currently no watches in effect.